Time;durP1;ratioP1;P1;durP2;ratioP2;P2;SDS_P1;SDS_P2;PMS_P1;PMS_P2;Temp;Humidity;BMP_temperature;BMP_pressure;BME280_temperature;BME280_humidity;BME280_pressure;Samples;Min_cycle;Max_cycle;Signal;HPM_P1;HPM_P2
2022/03/27 00:01:06;;;;;;;5.63;4.23;;;;;;;;;;5068494;28;20176;-55
2022/03/27 00:03:33;;;;;;;5.00;4.50;;;;;;;;;;5038564;28;20176;-55
2022/03/27 00:06:00;;;;;;;4.67;4.20;;;;;;;;;;5066919;28;20211;-57
2022/03/27 00:08:26;;;;;;;4.37;3.97;;;;;;;;;;5033782;28;20307;-54
2022/03/27 00:13:40;;;;;;;4.67;4.03;;;;;;;;;;5059106;28;20222;-54
2022/03/27 00:16:09;;;;;;;5.83;4.57;;;;;;;;;;5049762;28;20197;-55
2022/03/27 00:18:41;;;;;;;5.40;3.70;;;;;;;;;;5066366;28;20226;-59
2022/03/27 00:21:07;;;;;;;4.93;4.43;;;;;;;;;;5048999;28;20255;-57
2022/03/27 00:23:34;;;;;;;5.60;4.60;;;;;;;;;;5068815;28;20631;-54
2022/03/27 00:26:00;;;;;;;5.47;4.40;;;;;;;;;;5065941;28;20613;-55
2022/03/27 00:28:31;;;;;;;4.53;4.13;;;;;;;;;;5066411;28;20652;-56
2022/03/27 00:30:59;;;;;;;5.30;4.47;;;;;;;;;;5050046;28;20179;-54
2022/03/27 00:33:26;;;;;;;4.27;3.80;;;;;;;;;;5051543;28;20195;-57
2022/03/27 00:35:53;;;;;;;4.30;3.90;;;;;;;;;;5053390;28;20181;-55
2022/03/27 00:38:19;;;;;;;4.53;4.07;;;;;;;;;;5048144;28;20208;-57
2022/03/27 00:40:46;;;;;;;5.73;4.50;;;;;;;;;;5066465;28;20655;-55
2022/03/27 00:43:12;;;;;;;4.97;4.57;;;;;;;;;;5057512;28;20176;-55
2022/03/27 00:45:38;;;;;;;4.60;4.10;;;;;;;;;;5072295;28;20611;-55
2022/03/27 00:48:05;;;;;;;4.87;4.37;;;;;;;;;;5071989;28;20844;-55
2022/03/27 00:50:31;;;;;;;5.30;4.70;;;;;;;;;;5055765;28;20229;-54
2022/03/27 00:53:00;;;;;;;5.17;4.67;;;;;;;;;;5055156;28;20675;-54
2022/03/27 00:55:27;;;;;;;4.63;4.23;;;;;;;;;;5072302;28;20176;-54
2022/03/27 00:57:55;;;;;;;4.77;3.93;;;;;;;;;;5052135;28;20675;-55
2022/03/27 01:00:46;;;;;;;4.33;3.93;;;;;;;;;;5070829;28;20541;-56
2022/03/27 01:03:16;;;;;;;4.77;4.20;;;;;;;;;;5072907;28;20203;-54
2022/03/27 01:05:43;;;;;;;5.83;5.07;;;;;;;;;;5072316;28;20656;-54
2022/03/27 01:08:11;;;;;;;4.83;4.37;;;;;;;;;;5056872;28;20188;-55
2022/03/27 01:10:37;;;;;;;4.90;4.37;;;;;;;;;;5054431;28;20185;-54
2022/03/27 01:13:20;;;;;;;4.53;4.13;;;;;;;;;;5061067;28;20242;-53
2022/03/27 01:15:53;;;;;;;5.20;4.70;;;;;;;;;;5073170;28;20288;-54
2022/03/27 01:18:19;;;;;;;5.00;4.53;;;;;;;;;;5073848;28;20199;-54
2022/03/27 01:20:45;;;;;;;5.57;4.83;;;;;;;;;;5092151;28;20182;-55
2022/03/27 01:23:15;;;;;;;4.80;4.20;;;;;;;;;;5092233;28;20172;-54
2022/03/27 01:25:45;;;;;;;4.70;4.30;;;;;;;;;;5074201;28;20194;-55
2022/03/27 01:28:13;;;;;;;4.47;4.07;;;;;;;;;;5085477;28;20194;-54
2022/03/27 01:30:40;;;;;;;4.93;4.43;;;;;;;;;;5072194;28;20186;-53
2022/03/27 01:33:09;;;;;;;4.97;4.20;;;;;;;;;;5090273;28;20284;-54
2022/03/27 01:35:36;;;;;;;6.40;4.10;;;;;;;;;;5074983;28;20680;-55
2022/03/27 01:38:03;;;;;;;5.27;4.77;;;;;;;;;;5092021;28;20206;-53
2022/03/27 01:40:29;;;;;;;4.50;4.10;;;;;;;;;;5074385;28;20217;-53
2022/03/27 01:42:56;;;;;;;4.97;4.47;;;;;;;;;;5093768;28;20696;-54
2022/03/27 01:45:23;;;;;;;6.77;4.63;;;;;;;;;;5074070;28;20226;-54
2022/03/27 01:47:49;;;;;;;4.93;4.20;;;;;;;;;;5071535;28;20210;-55
2022/03/27 01:50:15;;;;;;;6.50;4.53;;;;;;;;;;5075022;28;20226;-53
2022/03/27 01:52:41;;;;;;;5.53;4.90;;;;;;;;;;5074549;28;20587;-55
2022/03/27 01:55:11;;;;;;;5.77;4.73;;;;;;;;;;5089114;28;20215;-53
2022/03/27 01:57:39;;;;;;;5.37;4.87;;;;;;;;;;5089281;28;20720;-53
2022/03/27 02:00:07;;;;;;;4.67;4.27;;;;;;;;;;5088474;28;20188;-56
2022/03/27 02:02:33;;;;;;;5.20;4.57;;;;;;;;;;5067133;28;20180;-55
2022/03/27 02:05:01;;;;;;;6.10;4.78;;;;;;;;;;5069149;28;20066;-56
2022/03/27 02:07:27;;;;;;;5.93;4.47;;;;;;;;;;5085835;28;20263;-53
2022/03/27 02:09:53;;;;;;;4.53;4.13;;;;;;;;;;5090018;28;20176;-56
2022/03/27 02:12:20;;;;;;;4.90;4.27;;;;;;;;;;5088540;28;20184;-53
2022/03/27 02:14:46;;;;;;;5.07;4.43;;;;;;;;;;5087787;28;20706;-55
2022/03/27 02:17:12;;;;;;;5.53;4.50;;;;;;;;;;5089822;28;20607;-52
2022/03/27 02:19:38;;;;;;;4.37;3.97;;;;;;;;;;5069021;28;20240;-54
2022/03/27 02:22:05;;;;;;;5.60;4.90;;;;;;;;;;5084263;28;20191;-53
2022/03/27 02:24:31;;;;;;;5.23;4.70;;;;;;;;;;5070950;28;20498;-54
2022/03/27 02:26:58;;;;;;;4.83;4.17;;;;;;;;;;5075225;28;20207;-53
2022/03/27 02:29:24;;;;;;;5.37;4.80;;;;;;;;;;5088347;28;20211;-53
2022/03/27 02:31:50;;;;;;;4.57;4.17;;;;;;;;;;5070995;28;20192;-53
2022/03/27 02:34:16;;;;;;;6.27;4.50;;;;;;;;;;5072504;28;20187;-54
2022/03/27 02:36:43;;;;;;;5.40;4.23;;;;;;;;;;5072772;28;20203;-52
2022/03/27 02:39:09;;;;;;;4.63;4.23;;;;;;;;;;5071810;28;20187;-53
2022/03/27 02:41:35;;;;;;;5.10;4.13;;;;;;;;;;5070885;28;20605;-53
2022/03/27 02:44:01;;;;;;;4.87;4.40;;;;;;;;;;5071699;28;20182;-54
2022/03/27 02:46:27;;;;;;;4.50;4.10;;;;;;;;;;5088583;28;20606;-54
2022/03/27 02:48:54;;;;;;;5.10;4.20;;;;;;;;;;5068120;28;20175;-54
2022/03/27 02:51:20;;;;;;;5.93;4.93;;;;;;;;;;5088707;28;20651;-54
2022/03/27 02:53:46;;;;;;;4.93;4.30;;;;;;;;;;5070552;28;20219;-54
2022/03/27 02:56:13;;;;;;;5.37;4.83;;;;;;;;;;5069927;28;20164;-54
2022/03/27 02:58:39;;;;;;;5.40;4.70;;;;;;;;;;5087129;28;20196;-54
2022/03/27 03:01:06;;;;;;;5.57;5.07;;;;;;;;;;5088080;28;20184;-53
2022/03/27 03:03:32;;;;;;;5.30;4.80;;;;;;;;;;5068893;28;20260;-54
2022/03/27 03:05:59;;;;;;;6.53;4.67;;;;;;;;;;5088773;28;20306;-53
2022/03/27 03:08:27;;;;;;;5.33;4.13;;;;;;;;;;5069595;28;20228;-53
2022/03/27 03:10:53;;;;;;;5.27;4.70;;;;;;;;;;5081269;28;20184;-53
2022/03/27 03:13:19;;;;;;;6.07;4.87;;;;;;;;;;5087732;28;20285;-54
2022/03/27 03:15:45;;;;;;;5.57;5.07;;;;;;;;;;5070709;28;20250;-53
2022/03/27 03:18:12;;;;;;;6.73;6.13;;;;;;;;;;5088159;28;20735;-53
2022/03/27 03:20:39;;;;;;;5.30;4.80;;;;;;;;;;5086924;28;20175;-53
2022/03/27 03:23:06;;;;;;;6.50;4.97;;;;;;;;;;5078268;28;20183;-54
2022/03/27 03:25:32;;;;;;;5.47;4.97;;;;;;;;;;5076448;28;20184;-55
2022/03/27 03:27:59;;;;;;;5.13;4.53;;;;;;;;;;5073815;28;20183;-54
2022/03/27 03:30:25;;;;;;;5.77;5.17;;;;;;;;;;5058143;28;20208;-53
2022/03/27 03:32:51;;;;;;;4.80;4.40;;;;;;;;;;5066731;28;20214;-53
2022/03/27 03:35:18;;;;;;;5.07;4.57;;;;;;;;;;5084805;28;20445;-53
2022/03/27 03:37:44;;;;;;;4.80;4.40;;;;;;;;;;5068452;28;20231;-54
2022/03/27 03:40:11;;;;;;;6.80;6.20;;;;;;;;;;5084505;28;20228;-56
2022/03/27 03:42:37;;;;;;;4.87;4.20;;;;;;;;;;5069566;28;20226;-53
2022/03/27 03:45:04;;;;;;;5.10;4.60;;;;;;;;;;5053675;28;20329;-54
2022/03/27 03:47:31;;;;;;;7.23;5.23;;;;;;;;;;5069632;28;20188;-53
2022/03/27 03:49:57;;;;;;;6.50;5.90;;;;;;;;;;5051045;28;20719;-54
2022/03/27 03:52:23;;;;;;;5.50;4.57;;;;;;;;;;5085536;28;20549;-54
2022/03/27 03:54:50;;;;;;;5.50;5.00;;;;;;;;;;5070021;28;20221;-53
2022/03/27 03:57:16;;;;;;;5.93;5.40;;;;;;;;;;5086728;28;20261;-54
2022/03/27 03:59:42;;;;;;;5.33;4.80;;;;;;;;;;5067118;28;20183;-55
2022/03/27 04:02:10;;;;;;;6.73;6.23;;;;;;;;;;5083743;28;20194;-54
2022/03/27 04:04:38;;;;;;;6.20;5.60;;;;;;;;;;5068935;28;20175;-53
2022/03/27 04:07:04;;;;;;;6.13;5.37;;;;;;;;;;5086807;28;20657;-54
2022/03/27 04:09:31;;;;;;;6.80;5.80;;;;;;;;;;5087305;28;20176;-53
2022/03/27 04:11:57;;;;;;;6.47;5.83;;;;;;;;;;5086744;28;20211;-54
2022/03/27 04:14:24;;;;;;;6.87;6.10;;;;;;;;;;5069807;28;20573;-55
2022/03/27 04:16:50;;;;;;;6.20;5.60;;;;;;;;;;5081924;28;20590;-54
2022/03/27 04:19:16;;;;;;;6.53;5.93;;;;;;;;;;5081717;28;20666;-53
2022/03/27 04:21:42;;;;;;;6.50;5.73;;;;;;;;;;5066734;28;20221;-54
2022/03/27 04:24:09;;;;;;;6.50;5.90;;;;;;;;;;5086013;28;20236;-55
2022/03/27 04:26:35;;;;;;;7.83;6.33;;;;;;;;;;5070744;28;20194;-53
2022/03/27 04:29:03;;;;;;;7.00;5.97;;;;;;;;;;5084519;28;20183;-53
2022/03/27 04:31:29;;;;;;;7.50;6.80;;;;;;;;;;5085460;28;20183;-54
2022/03/27 04:33:56;;;;;;;7.87;7.07;;;;;;;;;;5087327;28;20661;-53
2022/03/27 04:36:22;;;;;;;7.93;7.07;;;;;;;;;;5067295;28;20543;-53
2022/03/27 04:38:48;;;;;;;8.70;7.60;;;;;;;;;;5068312;28;20232;-55
2022/03/27 04:41:15;;;;;;;8.03;7.23;;;;;;;;;;5068092;28;20176;-53
2022/03/27 04:43:43;;;;;;;8.53;7.73;;;;;;;;;;5069274;28;20190;-54
2022/03/27 04:46:09;;;;;;;9.70;8.83;;;;;;;;;;5085512;28;20211;-54
2022/03/27 04:48:35;;;;;;;9.27;8.37;;;;;;;;;;5085095;28;20194;-53
2022/03/27 04:51:01;;;;;;;8.90;7.83;;;;;;;;;;5055668;28;20233;-53
2022/03/27 04:53:28;;;;;;;10.00;9.00;;;;;;;;;;5072435;28;20182;-53
2022/03/27 04:55:54;;;;;;;10.33;9.33;;;;;;;;;;5068687;28;20184;-53
2022/03/27 04:58:20;;;;;;;10.03;9.03;;;;;;;;;;5084492;28;20609;-54
2022/03/27 05:00:47;;;;;;;12.77;11.50;;;;;;;;;;5087325;28;20180;-54
2022/03/27 05:03:13;;;;;;;10.23;9.00;;;;;;;;;;5068811;28;20707;-53
2022/03/27 05:05:40;;;;;;;10.97;9.87;;;;;;;;;;5086901;28;20555;-54
2022/03/27 05:08:06;;;;;;;11.00;10.00;;;;;;;;;;5086627;28;20183;-54
2022/03/27 05:10:32;;;;;;;10.97;9.87;;;;;;;;;;5067243;28;20401;-56
2022/03/27 05:13:02;;;;;;;13.23;9.70;;;;;;;;;;5087795;28;20188;-54
2022/03/27 05:15:28;;;;;;;11.30;9.97;;;;;;;;;;5068456;28;20713;-54
2022/03/27 05:17:58;;;;;;;13.37;11.03;;;;;;;;;;5067148;28;20609;-55
2022/03/27 05:20:25;;;;;;;14.53;11.20;;;;;;;;;;5083157;28;20188;-54
2022/03/27 05:22:51;;;;;;;12.57;10.20;;;;;;;;;;5086345;28;20180;-54
2022/03/27 05:25:18;;;;;;;12.60;10.83;;;;;;;;;;5086647;28;20250;-53
2022/03/27 05:27:45;;;;;;;11.47;10.37;;;;;;;;;;5087111;28;20670;-57
2022/03/27 05:30:12;;;;;;;12.03;10.80;;;;;;;;;;5088901;28;20258;-55
2022/03/27 05:32:38;;;;;;;11.60;10.43;;;;;;;;;;5090318;28;20210;-56
2022/03/27 05:35:06;;;;;;;13.63;12.10;;;;;;;;;;5072093;28;20240;-54
2022/03/27 05:37:35;;;;;;;12.20;10.90;;;;;;;;;;5090256;28;20553;-54
2022/03/27 05:40:02;;;;;;;13.40;11.93;;;;;;;;;;5075403;28;20215;-54
2022/03/27 05:42:28;;;;;;;13.50;12.10;;;;;;;;;;5090387;28;20264;-53
2022/03/27 05:44:55;;;;;;;13.43;11.63;;;;;;;;;;5092216;28;20690;-54
2022/03/27 05:47:21;;;;;;;13.87;11.83;;;;;;;;;;5071648;28;20199;-54
2022/03/27 05:49:48;;;;;;;15.43;13.20;;;;;;;;;;5087656;28;20180;-54
2022/03/27 05:52:16;;;;;;;14.17;12.67;;;;;;;;;;5071712;28;20187;-54
2022/03/27 05:54:42;;;;;;;16.57;12.73;;;;;;;;;;5075494;28;20191;-54
2022/03/27 05:57:09;;;;;;;18.13;14.20;;;;;;;;;;5069787;28;20705;-54
2022/03/27 05:59:35;;;;;;;16.90;14.40;;;;;;;;;;5088808;28;20183;-54
2022/03/27 06:02:01;;;;;;;19.77;16.27;;;;;;;;;;5071892;28;20253;-54
2022/03/27 06:04:29;;;;;;;18.87;15.77;;;;;;;;;;5089844;28;20204;-56
2022/03/27 06:06:55;;;;;;;19.17;15.50;;;;;;;;;;5088312;28;20339;-53
2022/03/27 06:09:21;;;;;;;19.70;16.60;;;;;;;;;;5090448;28;20202;-54
2022/03/27 06:11:49;;;;;;;20.20;17.47;;;;;;;;;;5088929;28;20180;-53
2022/03/27 06:14:15;;;;;;;21.03;17.40;;;;;;;;;;5074253;28;20305;-53
2022/03/27 06:16:41;;;;;;;21.37;17.37;;;;;;;;;;5072406;28;20892;-54
2022/03/27 06:19:07;;;;;;;22.93;17.50;;;;;;;;;;5089290;28;20210;-54
2022/03/27 06:21:33;;;;;;;21.67;17.70;;;;;;;;;;5088459;28;20184;-57
2022/03/27 06:23:59;;;;;;;23.87;17.93;;;;;;;;;;5089359;28;20216;-54
2022/03/27 06:26:26;;;;;;;22.90;18.00;;;;;;;;;;5089975;28;20693;-54
2022/03/27 06:28:52;;;;;;;20.03;16.70;;;;;;;;;;5087508;28;20621;-54
2022/03/27 06:31:18;;;;;;;22.37;18.60;;;;;;;;;;5071232;28;20193;-54
2022/03/27 06:33:45;;;;;;;26.17;19.83;;;;;;;;;;5069161;28;20180;-54
2022/03/27 06:36:13;;;;;;;23.43;17.97;;;;;;;;;;5088789;28;20179;-55
2022/03/27 06:38:39;;;;;;;25.00;19.00;;;;;;;;;;5050613;28;20621;-53
2022/03/27 06:41:06;;;;;;;24.30;18.67;;;;;;;;;;5072073;28;20782;-54
2022/03/27 06:43:36;;;;;;;28.67;20.70;;;;;;;;;;5087595;28;20184;-54
2022/03/27 06:46:03;;;;;;;25.63;19.37;;;;;;;;;;5069859;28;20206;-54
2022/03/27 06:48:29;;;;;;;26.50;19.53;;;;;;;;;;5084917;28;20206;-55
2022/03/27 06:50:56;;;;;;;24.00;19.50;;;;;;;;;;5071828;28;20250;-54
2022/03/27 06:53:24;;;;;;;24.43;19.27;;;;;;;;;;5069731;28;20254;-54
2022/03/27 06:55:51;;;;;;;23.80;17.90;;;;;;;;;;5090531;28;20738;-55
2022/03/27 06:58:17;;;;;;;23.43;19.07;;;;;;;;;;5085662;28;20217;-53
2022/03/27 07:03:29;;;;;;;21.57;18.03;;;;;;;;;;5085571;28;20681;-54
2022/03/27 07:05:56;;;;;;;24.17;18.83;;;;;;;;;;5088832;28;20178;-54
2022/03/27 07:08:22;;;;;;;24.37;18.97;;;;;;;;;;5071223;28;20187;-54
2022/03/27 07:10:49;;;;;;;26.00;19.90;;;;;;;;;;5089906;28;20258;-54
2022/03/27 07:13:16;;;;;;;26.60;20.43;;;;;;;;;;5071952;28;20192;-54
2022/03/27 07:15:43;;;;;;;22.83;18.70;;;;;;;;;;5077193;28;20273;-54
2022/03/27 07:18:10;;;;;;;23.77;19.47;;;;;;;;;;5064718;28;20196;-54
2022/03/27 07:20:38;;;;;;;22.03;18.00;;;;;;;;;;5084134;28;20188;-55
2022/03/27 07:23:05;;;;;;;26.20;18.80;;;;;;;;;;5083324;28;20211;-54
2022/03/27 07:25:34;;;;;;;24.03;19.03;;;;;;;;;;5064243;28;20184;-56
2022/03/27 07:28:00;;;;;;;26.70;19.53;;;;;;;;;;5066119;28;20190;-54
2022/03/27 07:30:27;;;;;;;23.10;18.83;;;;;;;;;;5083523;28;20183;-53
2022/03/27 07:32:53;;;;;;;23.33;18.80;;;;;;;;;;5077702;28;20172;-53
2022/03/27 07:35:19;;;;;;;22.80;18.13;;;;;;;;;;5088081;28;20588;-54
2022/03/27 07:37:46;;;;;;;22.90;18.47;;;;;;;;;;5086933;28;20196;-54
2022/03/27 07:40:13;;;;;;;24.30;18.67;;;;;;;;;;5071318;28;20164;-54
2022/03/27 07:42:40;;;;;;;24.60;18.97;;;;;;;;;;5087462;28;20178;-54
2022/03/27 07:45:07;;;;;;;23.90;19.03;;;;;;;;;;5087678;28;20779;-54
2022/03/27 07:47:34;;;;;;;26.50;18.33;;;;;;;;;;5066006;28;20180;-53
2022/03/27 07:50:00;;;;;;;22.70;18.40;;;;;;;;;;5070703;28;20314;-53
2022/03/27 07:52:27;;;;;;;22.53;17.53;;;;;;;;;;5074398;28;20176;-54
2022/03/27 07:54:54;;;;;;;22.30;17.17;;;;;;;;;;5069891;28;20172;-54
2022/03/27 07:57:20;;;;;;;22.87;18.07;;;;;;;;;;5070071;28;20198;-53
2022/03/27 07:59:47;;;;;;;20.93;17.07;;;;;;;;;;5069380;28;20621;-53
2022/03/27 08:02:14;;;;;;;21.10;16.37;;;;;;;;;;5084089;28;20177;-54
2022/03/27 08:04:40;;;;;;;19.90;16.97;;;;;;;;;;5074916;28;20270;-54
2022/03/27 08:07:06;;;;;;;22.17;18.17;;;;;;;;;;5071284;28;20642;-54
2022/03/27 08:09:32;;;;;;;21.47;17.03;;;;;;;;;;5070433;28;20278;-54
2022/03/27 08:11:58;;;;;;;20.97;17.63;;;;;;;;;;5075906;28;20180;-54
2022/03/27 08:14:28;;;;;;;17.23;15.33;;;;;;;;;;5069612;28;20490;-54
2022/03/27 08:16:55;;;;;;;19.93;16.00;;;;;;;;;;5093233;28;20644;-54
2022/03/27 08:19:21;;;;;;;21.03;16.47;;;;;;;;;;5081402;28;20182;-55
2022/03/27 08:21:48;;;;;;;18.70;15.83;;;;;;;;;;5072231;28;20609;-56
2022/03/27 08:24:14;;;;;;;18.63;15.17;;;;;;;;;;5068451;28;20176;-53
2022/03/27 08:26:57;;;;;;;18.30;14.87;;;;;;;;;;5070692;28;20189;-53
2022/03/27 08:29:24;;;;;;;22.53;15.73;;;;;;;;;;5063163;28;20184;-55
2022/03/27 08:31:51;;;;;;;16.67;14.97;;;;;;;;;;5072642;28;20192;-53
2022/03/27 08:34:18;;;;;;;18.37;16.47;;;;;;;;;;5083632;28;20765;-55
2022/03/27 08:36:45;;;;;;;16.43;14.73;;;;;;;;;;5060378;28;20174;-54
2022/03/27 08:39:12;;;;;;;16.57;14.77;;;;;;;;;;5054410;28;20186;-54
2022/03/27 08:41:41;;;;;;;16.33;14.63;;;;;;;;;;5071478;28;20233;-54
2022/03/27 08:44:08;;;;;;;17.63;14.67;;;;;;;;;;5080805;28;20179;-54
2022/03/27 08:46:34;;;;;;;15.80;14.00;;;;;;;;;;5080425;28;20237;-54
2022/03/27 08:49:02;;;;;;;15.93;13.93;;;;;;;;;;5066280;28;20188;-53
2022/03/27 08:51:42;;;;;;;16.63;14.83;;;;;;;;;;5051252;28;20957;-54
2022/03/27 08:54:13;;;;;;;16.37;14.47;;;;;;;;;;5061743;28;20618;-53
2022/03/27 08:56:40;;;;;;;16.77;14.97;;;;;;;;;;5051935;28;20579;-54
2022/03/27 08:59:10;;;;;;;15.20;13.30;;;;;;;;;;5069503;28;21033;-55
2022/03/27 09:01:36;;;;;;;15.77;14.17;;;;;;;;;;5068132;28;20215;-55
2022/03/27 09:04:02;;;;;;;17.10;15.30;;;;;;;;;;5087173;28;20179;-53
2022/03/27 09:06:28;;;;;;;15.87;13.53;;;;;;;;;;5074446;28;20642;-54
2022/03/27 09:08:55;;;;;;;17.13;15.33;;;;;;;;;;5073537;28;20179;-53
2022/03/27 09:11:22;;;;;;;18.07;15.10;;;;;;;;;;5092878;28;20196;-53
2022/03/27 09:13:50;;;;;;;17.33;14.93;;;;;;;;;;5073374;28;20702;-55
2022/03/27 09:16:16;;;;;;;18.03;15.30;;;;;;;;;;5074131;28;20274;-52
2022/03/27 09:18:58;;;;;;;17.43;15.60;;;;;;;;;;5090617;28;20256;-54
2022/03/27 09:21:26;;;;;;;16.67;14.97;;;;;;;;;;5090511;28;20184;-53
2022/03/27 09:23:59;;;;;;;17.73;15.93;;;;;;;;;;5090989;28;20840;-52
2022/03/27 09:26:26;;;;;;;16.60;14.37;;;;;;;;;;5074297;28;20547;-53
2022/03/27 09:28:54;;;;;;;16.30;14.63;;;;;;;;;;5073396;28;20180;-53
2022/03/27 09:31:27;;;;;;;15.23;13.70;;;;;;;;;;5085838;28;20643;-53
2022/03/27 09:34:01;;;;;;;16.37;14.63;;;;;;;;;;5087745;28;20205;-56
2022/03/27 09:36:32;;;;;;;17.67;15.57;;;;;;;;;;5053417;28;20176;-53
2022/03/27 09:39:07;;;;;;;16.63;14.57;;;;;;;;;;5072852;28;20975;-53
2022/03/27 09:41:35;;;;;;;16.77;15.07;;;;;;;;;;5064857;28;20202;-55
2022/03/27 09:44:03;;;;;;;16.47;14.30;;;;;;;;;;5090491;28;20175;-53
2022/03/27 09:46:47;;;;;;;17.77;14.30;;;;;;;;;;5050940;28;20184;-56
2022/03/27 09:49:14;;;;;;;18.17;15.63;;;;;;;;;;5071359;28;20246;-53
2022/03/27 09:52:13;;;;;;;15.53;13.93;;;;;;;;;;5049975;28;20183;-54
2022/03/27 09:54:50;;;;;;;21.40;14.90;;;;;;;;;;5043617;28;20192;-54
2022/03/27 09:57:24;;;;;;;18.53;14.97;;;;;;;;;;5080388;28;20316;-56
2022/03/27 09:59:51;;;;;;;16.97;14.13;;;;;;;;;;5052545;28;20552;-55
2022/03/27 10:02:19;;;;;;;17.10;14.43;;;;;;;;;;5068510;28;20684;-54
2022/03/27 10:04:52;;;;;;;16.50;14.80;;;;;;;;;;5084048;28;20690;-54
2022/03/27 10:07:19;;;;;;;16.87;14.57;;;;;;;;;;5068945;28;20266;-53
2022/03/27 10:09:45;;;;;;;15.70;13.93;;;;;;;;;;5074952;28;20591;-55
2022/03/27 10:12:13;;;;;;;17.57;15.70;;;;;;;;;;5065256;28;20172;-53
2022/03/27 10:14:41;;;;;;;17.87;15.67;;;;;;;;;;5080323;28;20703;-54
2022/03/27 10:17:10;;;;;;;18.43;15.30;;;;;;;;;;5061145;28;20266;-57
2022/03/27 10:19:58;;;;;;;17.30;15.27;;;;;;;;;;5064442;28;20647;-57
2022/03/27 10:22:25;;;;;;;19.70;16.03;;;;;;;;;;5067026;28;20663;-55
2022/03/27 10:24:52;;;;;;;17.70;15.23;;;;;;;;;;5076625;28;20208;-53
2022/03/27 10:27:20;;;;;;;18.77;16.73;;;;;;;;;;5059908;28;20184;-54
2022/03/27 10:29:47;;;;;;;17.77;15.17;;;;;;;;;;5082556;28;20183;-54
2022/03/27 10:32:14;;;;;;;20.47;16.87;;;;;;;;;;5088564;28;20176;-55
2022/03/27 10:34:43;;;;;;;20.53;15.23;;;;;;;;;;5074000;28;20218;-54
2022/03/27 10:37:15;;;;;;;19.93;16.33;;;;;;;;;;5083842;28;20557;-54
2022/03/27 10:39:46;;;;;;;21.40;17.13;;;;;;;;;;5083751;28;20183;-55
2022/03/27 10:42:12;;;;;;;19.87;17.73;;;;;;;;;;5082450;28;20184;-54
2022/03/27 10:44:46;;;;;;;21.17;16.70;;;;;;;;;;5067222;28;20180;-54
2022/03/27 10:47:23;;;;;;;24.57;18.50;;;;;;;;;;5070394;28;20187;-57
2022/03/27 10:50:21;;;;;;;20.33;17.17;;;;;;;;;;5083294;28;20234;-55
2022/03/27 10:52:56;;;;;;;21.13;17.77;;;;;;;;;;5084671;28;20180;-54
2022/03/27 10:55:22;;;;;;;22.30;17.17;;;;;;;;;;5060155;28;20188;-54
2022/03/27 10:57:52;;;;;;;23.70;18.27;;;;;;;;;;5046420;28;20211;-55
2022/03/27 11:00:41;;;;;;;21.30;18.23;;;;;;;;;;5070521;28;20643;-54
2022/03/27 11:03:07;;;;;;;24.87;19.10;;;;;;;;;;5067982;28;20702;-55
2022/03/27 11:05:37;;;;;;;22.23;18.47;;;;;;;;;;5053275;28;20222;-55
2022/03/27 11:08:18;;;;;;;23.27;18.50;;;;;;;;;;5082305;28;20180;-54
2022/03/27 11:10:49;;;;;;;24.20;18.90;;;;;;;;;;5084807;28;20631;-55
2022/03/27 11:13:28;;;;;;;22.33;18.77;;;;;;;;;;5086125;28;20172;-57
2022/03/27 11:16:05;;;;;;;21.77;18.97;;;;;;;;;;5051011;28;20232;-54
2022/03/27 11:18:41;;;;;;;23.83;19.40;;;;;;;;;;5035832;28;20208;-55
2022/03/27 11:21:09;;;;;;;21.70;18.83;;;;;;;;;;5045589;28;20644;-54
2022/03/27 11:23:37;;;;;;;23.17;18.97;;;;;;;;;;5062582;28;20668;-55
2022/03/27 11:26:04;;;;;;;22.67;17.73;;;;;;;;;;5065993;28;20180;-54
2022/03/27 11:28:44;;;;;;;23.50;18.03;;;;;;;;;;5051544;28;20740;-56
2022/03/27 11:31:10;;;;;;;23.17;17.77;;;;;;;;;;5068454;28;20788;-54
2022/03/27 11:33:37;;;;;;;22.10;18.03;;;;;;;;;;5066115;28;20724;-55
2022/03/27 11:36:11;;;;;;;23.27;19.87;;;;;;;;;;5043603;28;20188;-55
2022/03/27 11:38:55;;;;;;;24.37;19.27;;;;;;;;;;5048602;28;20664;-54
2022/03/27 11:41:27;;;;;;;20.70;18.20;;;;;;;;;;5057203;28;20523;-54
2022/03/27 11:43:54;;;;;;;21.53;17.47;;;;;;;;;;5064690;28;20674;-55
2022/03/27 11:46:24;;;;;;;19.80;16.10;;;;;;;;;;5060712;28;20271;-57
2022/03/27 11:48:55;;;;;;;22.53;17.87;;;;;;;;;;5047038;28;20188;-55
2022/03/27 11:51:24;;;;;;;20.13;17.00;;;;;;;;;;5048857;28;20257;-55
2022/03/27 11:53:51;;;;;;;19.43;16.07;;;;;;;;;;5049945;28;20218;-54
2022/03/27 11:56:17;;;;;;;20.93;16.77;;;;;;;;;;5062994;28;20184;-55
2022/03/27 11:58:44;;;;;;;21.23;16.53;;;;;;;;;;5068012;28;20571;-55
2022/03/27 12:01:10;;;;;;;18.67;16.67;;;;;;;;;;5068312;28;20180;-56
2022/03/27 12:03:39;;;;;;;20.43;16.73;;;;;;;;;;5065757;28;20720;-57
2022/03/27 12:06:10;;;;;;;18.93;15.67;;;;;;;;;;5063571;28;20258;-56
2022/03/27 12:08:40;;;;;;;18.73;16.33;;;;;;;;;;5066123;28;20192;-55
2022/03/27 12:11:07;;;;;;;18.63;15.73;;;;;;;;;;5054265;28;20189;-57
2022/03/27 12:13:43;;;;;;;18.87;15.03;;;;;;;;;;5057969;28;20189;-55
2022/03/27 12:16:37;;;;;;;18.00;15.50;;;;;;;;;;5057290;28;20220;-55
2022/03/27 12:19:13;;;;;;;17.40;14.53;;;;;;;;;;5061255;28;20241;-55
2022/03/27 12:21:46;;;;;;;16.43;14.43;;;;;;;;;;5066041;28;20307;-56
2022/03/27 12:24:12;;;;;;;17.63;15.23;;;;;;;;;;5071565;28;20203;-58
2022/03/27 12:29:40;;;;;;;17.00;14.13;;;;;;;;;;5066039;28;20276;-55
2022/03/27 12:32:13;;;;;;;17.10;13.90;;;;;;;;;;5068704;28;20165;-57
2022/03/27 12:34:41;;;;;;;16.63;14.37;;;;;;;;;;5047697;28;20619;-55
2022/03/27 12:37:14;;;;;;;16.33;14.40;;;;;;;;;;5067987;28;20546;-55
2022/03/27 12:39:49;;;;;;;14.60;12.60;;;;;;;;;;5072932;28;20457;-54
2022/03/27 12:42:37;;;;;;;14.50;12.97;;;;;;;;;;5069906;28;20205;-55
2022/03/27 12:45:19;;;;;;;15.07;13.23;;;;;;;;;;5060796;28;20248;-56
2022/03/27 12:47:45;;;;;;;15.47;13.03;;;;;;;;;;5066880;28;20545;-57
2022/03/27 12:50:27;;;;;;;13.30;11.73;;;;;;;;;;5050209;28;20180;-57
2022/03/27 12:53:09;;;;;;;15.97;13.03;;;;;;;;;;5052802;28;20189;-56
2022/03/27 12:55:45;;;;;;;16.57;12.60;;;;;;;;;;5054773;28;20192;-55
2022/03/27 12:58:12;;;;;;;13.10;11.67;;;;;;;;;;5040962;28;20210;-58
2022/03/27 13:00:40;;;;;;;13.83;12.10;;;;;;;;;;5060704;28;20663;-56
2022/03/27 13:03:17;;;;;;;13.00;11.57;;;;;;;;;;5047856;28;20210;-57
2022/03/27 13:05:53;;;;;;;17.27;13.10;;;;;;;;;;5049968;28;20172;-57
2022/03/27 13:08:26;;;;;;;14.53;11.90;;;;;;;;;;5049271;28;20654;-56
2022/03/27 13:11:11;;;;;;;12.20;10.90;;;;;;;;;;5084602;28;20176;-59
2022/03/27 13:13:37;;;;;;;12.17;10.83;;;;;;;;;;5073282;28;20219;-56
2022/03/27 13:16:27;;;;;;;11.63;10.43;;;;;;;;;;5047077;28;20227;-56
2022/03/27 13:19:05;;;;;;;12.67;10.77;;;;;;;;;;5059779;28;20205;-57
2022/03/27 13:21:38;;;;;;;13.67;10.43;;;;;;;;;;5058673;28;20182;-59
2022/03/27 13:24:09;;;;;;;11.43;9.57;;;;;;;;;;5045517;28;20204;-59
2022/03/27 13:26:36;;;;;;;11.60;9.23;;;;;;;;;;5046725;28;20176;-54
2022/03/27 13:29:03;;;;;;;10.73;8.97;;;;;;;;;;5058390;28;20183;-54
2022/03/27 13:31:30;;;;;;;10.60;8.67;;;;;;;;;;5048039;28;20188;-55
2022/03/27 13:33:57;;;;;;;13.63;9.67;;;;;;;;;;5064807;28;20210;-54
2022/03/27 13:36:23;;;;;;;11.00;9.20;;;;;;;;;;5046417;28;20262;-55
2022/03/27 13:38:49;;;;;;;12.17;9.20;;;;;;;;;;5033059;28;20184;-55
2022/03/27 13:44:01;;;;;;;10.13;8.33;;;;;;;;;;5054584;28;20690;-55
2022/03/27 13:46:27;;;;;;;9.43;7.50;;;;;;;;;;5066529;28;20187;-55
2022/03/27 13:48:54;;;;;;;10.87;7.57;;;;;;;;;;5050441;28;20189;-56
2022/03/27 13:51:20;;;;;;;12.13;8.17;;;;;;;;;;5071234;28;20579;-54
2022/03/27 13:53:47;;;;;;;11.87;8.33;;;;;;;;;;5069628;28;20179;-55
2022/03/27 13:56:13;;;;;;;10.00;7.37;;;;;;;;;;5046766;28;20267;-56
2022/03/27 13:58:40;;;;;;;8.07;7.17;;;;;;;;;;5047789;28;20242;-56
2022/03/27 14:01:06;;;;;;;9.80;7.93;;;;;;;;;;5068176;28;20188;-56
2022/03/27 14:03:32;;;;;;;12.57;7.87;;;;;;;;;;5066002;28;20181;-57
2022/03/27 14:05:59;;;;;;;9.13;7.03;;;;;;;;;;5051119;28;20618;-58
2022/03/27 14:08:26;;;;;;;9.20;7.87;;;;;;;;;;5042109;28;20181;-57
2022/03/27 14:10:52;;;;;;;9.80;7.93;;;;;;;;;;5051164;28;20184;-58
2022/03/27 14:13:19;;;;;;;8.77;7.67;;;;;;;;;;5062629;28;20563;-60
2022/03/27 14:15:45;;;;;;;9.60;6.93;;;;;;;;;;5081326;28;20634;-56
2022/03/27 14:18:12;;;;;;;7.13;6.17;;;;;;;;;;5048918;28;20208;-60
2022/03/27 14:20:39;;;;;;;8.23;6.77;;;;;;;;;;5068846;28;20262;-60
2022/03/27 14:23:06;;;;;;;8.93;7.07;;;;;;;;;;5052151;28;20212;-59
2022/03/27 14:25:33;;;;;;;30.10;8.60;;;;;;;;;;5050313;28;20181;-58
2022/03/27 14:28:02;;;;;;;173.03;28.43;;;;;;;;;;5048858;28;20191;-57
2022/03/27 14:30:28;;;;;;;12.43;7.37;;;;;;;;;;5048255;28;20172;-58
2022/03/27 14:32:55;;;;;;;13.47;8.13;;;;;;;;;;5063317;28;20177;-58
2022/03/27 14:35:21;;;;;;;7.07;5.77;;;;;;;;;;5062102;28;20172;-58
2022/03/27 14:37:47;;;;;;;7.07;6.13;;;;;;;;;;5064653;28;20804;-56
2022/03/27 14:40:15;;;;;;;7.77;6.27;;;;;;;;;;5046346;28;20172;-59
2022/03/27 14:42:42;;;;;;;8.63;5.77;;;;;;;;;;5046427;28;20508;-58
2022/03/27 14:45:09;;;;;;;7.20;5.83;;;;;;;;;;5047995;28;20595;-57
2022/03/27 14:47:36;;;;;;;7.93;5.53;;;;;;;;;;5060492;28;20185;-59